createdAt,value
2023-04-20T00:01:48.289Z,97998.36
2023-04-20T00:04:16.512Z,97999.74
2023-04-20T00:06:45.594Z,98002.57
2023-04-20T00:09:15.719Z,98002.48
2023-04-20T00:11:43.803Z,98002.90
2023-04-20T00:14:11.746Z,97998.67
2023-04-20T00:16:39.791Z,97995.34
2023-04-20T00:19:08.442Z,97994.48
2023-04-20T00:21:36.570Z,97995.94
2023-04-20T00:24:04.758Z,97993.41
2023-04-20T00:26:32.803Z,97987.41
2023-04-20T00:29:00.863Z,97993.20
2023-04-20T00:31:28.943Z,97993.58
2023-04-20T00:33:56.959Z,97994.86
2023-04-20T00:36:24.878Z,97992.17
2023-04-20T00:38:53.266Z,97994.41
2023-04-20T00:41:22.263Z,97993.45
2023-04-20T00:43:54.511Z,97993.23
2023-04-20T00:46:22.554Z,97992.42
2023-04-20T00:48:54.461Z,97990.59
2023-04-20T00:51:23.044Z,97995.98
2023-04-20T00:53:51.045Z,97995.48
2023-04-20T00:56:19.616Z,97995.75
2023-04-20T00:58:47.710Z,97994.80
2023-04-20T01:01:17.937Z,97993.35
2023-04-20T01:03:47.800Z,97990.09
2023-04-20T01:06:16.150Z,97991.48
2023-04-20T01:08:51.278Z,97991.70
2023-04-20T01:11:19.251Z,97992.33
2023-04-20T01:13:47.404Z,97990.44
2023-04-20T01:16:15.459Z,97990.55
2023-04-20T01:18:48.584Z,97985.62
2023-04-20T01:21:24.078Z,97988.04
2023-04-20T01:23:53.349Z,97986.73
2023-04-20T01:26:23.430Z,97990.69
2023-04-20T01:28:52.307Z,97987.36
2023-04-20T01:31:21.174Z,97988.88
2023-04-20T01:33:49.781Z,97994.48
2023-04-20T01:36:17.687Z,97997.44
2023-04-20T01:38:46.161Z,97996.27
2023-04-20T01:41:14.156Z,97994.68
2023-04-20T01:43:42.143Z,97990.05
2023-04-20T01:46:10.093Z,97986.98
2023-04-20T01:48:38.041Z,97986.84
2023-04-20T01:51:06.209Z,97986.78
2023-04-20T01:53:34.233Z,97984.21
2023-04-20T01:56:02.165Z,97981.96
2023-04-20T01:58:30.197Z,97981.73
2023-04-20T02:00:58.485Z,97981.16
2023-04-20T02:03:28.507Z,97981.55
2023-04-20T02:05:56.529Z,97984.06
2023-04-20T02:08:27.923Z,97981.39
2023-04-20T02:10:55.840Z,97977.92
2023-04-20T02:13:23.744Z,97977.86
2023-04-20T02:15:51.636Z,97978.56
2023-04-20T02:18:19.699Z,97981.91
2023-04-20T02:20:47.747Z,97981.64
2023-04-20T02:23:16.062Z,97987.48
2023-04-20T02:25:44.007Z,97988.66
2023-04-20T02:28:13.012Z,97989.19
2023-04-20T02:30:40.935Z,97985.07
2023-04-20T02:33:09.222Z,97985.08
2023-04-20T02:35:37.172Z,97982.73
2023-04-20T02:38:05.075Z,97989.84
2023-04-20T02:40:32.946Z,97989.36
2023-04-20T02:43:00.934Z,97988.30
2023-04-20T02:45:30.916Z,97989.10
2023-04-20T02:47:59.543Z,97988.78
2023-04-20T02:50:28.392Z,97986.64
2023-04-20T02:53:03.141Z,97990.16
2023-04-20T02:55:32.566Z,97984.11
2023-04-20T02:58:03.513Z,97988.88
2023-04-20T03:00:52.046Z,97989.64
2023-04-20T03:03:21.531Z,97989.30
2023-04-20T03:05:49.773Z,97992.79
2023-04-20T03:08:18.098Z,97991.98
2023-04-20T03:10:46.692Z,97993.33
2023-04-20T03:13:19.028Z,97997.45
2023-04-20T03:15:59.922Z,98000.21
2023-04-20T03:18:32.746Z,98002.31
2023-04-20T03:21:00.800Z,98001.23
2023-04-20T03:23:30.876Z,97999.63
2023-04-20T03:25:58.896Z,98003.23
2023-04-20T03:28:56.055Z,98007.13
2023-04-20T03:31:26.616Z,98007.02
2023-04-20T03:33:56.142Z,98004.67
2023-04-20T03:36:24.410Z,98005.68
2023-04-20T03:38:52.378Z,98004.02
2023-04-20T03:41:22.332Z,98010.07
2023-04-20T03:43:50.970Z,98011.63
2023-04-20T03:46:19.509Z,98009.73
2023-04-20T03:48:48.385Z,98004.38
2023-04-20T03:51:16.254Z,98009.15
2023-04-20T03:53:44.263Z,98008.93
2023-04-20T03:56:13.116Z,98016.43
2023-04-20T03:58:41.237Z,98012.31
2023-04-20T04:01:19.128Z,98015.16
2023-04-20T04:03:49.390Z,98013.91
2023-04-20T04:06:18.373Z,98015.79
2023-04-20T04:08:46.371Z,98016.34
2023-04-20T04:11:14.394Z,98015.48
2023-04-20T04:13:42.528Z,98015.20
2023-04-20T04:16:11.362Z,98018.85
2023-04-20T04:18:45.654Z,98015.69
2023-04-20T04:21:13.854Z,98015.20
2023-04-20T04:23:45.782Z,98013.44
2023-04-20T04:26:21.524Z,98018.27
2023-04-20T04:28:49.875Z,98018.48
2023-04-20T04:31:19.645Z,98017.13
2023-04-20T04:33:48.265Z,98019.71
2023-04-20T04:36:27.064Z,98017.78
2023-04-20T04:38:56.775Z,98017.02
2023-04-20T04:41:25.710Z,98020.19
2023-04-20T04:43:54.344Z,98017.39
2023-04-20T04:46:27.886Z,98018.90
2023-04-20T04:49:01.265Z,98028.12
2023-04-20T04:51:29.375Z,98024.95
2023-04-20T04:53:57.416Z,98030.85
2023-04-20T04:56:25.949Z,98032.66
2023-04-20T04:58:53.910Z,98034.00
2023-04-20T05:01:22.156Z,98034.48
2023-04-20T05:03:50.475Z,98040.48
2023-04-20T05:06:18.550Z,98039.45
2023-04-20T05:08:46.791Z,98039.95
2023-04-20T05:11:14.766Z,98036.63
2023-04-20T05:13:43.215Z,98039.67
2023-04-20T05:16:11.494Z,98041.12
2023-04-20T05:18:39.501Z,98042.61
2023-04-20T05:21:07.442Z,98045.23
2023-04-20T05:23:35.360Z,98048.92
2023-04-20T05:26:03.356Z,98047.10
2023-04-20T05:28:33.077Z,98048.90
2023-04-20T05:31:01.592Z,98046.17
2023-04-20T05:33:29.481Z,98046.73
2023-04-20T05:35:57.795Z,98044.09
2023-04-20T05:38:25.980Z,98043.15
2023-04-20T05:40:53.984Z,98046.56
2023-04-20T05:43:22.024Z,98050.83
2023-04-20T05:45:50.074Z,98054.40
2023-04-20T05:48:17.972Z,98058.77
2023-04-20T05:50:45.889Z,98059.55
2023-04-20T05:53:13.820Z,98062.61
2023-04-20T05:55:41.741Z,98055.14
2023-04-20T05:58:09.732Z,98056.65
2023-04-20T06:00:37.693Z,98059.34
2023-04-20T06:03:05.730Z,98059.00
2023-04-20T06:05:34.361Z,98062.14
2023-04-20T06:08:02.512Z,98063.11
2023-04-20T06:10:32.579Z,98065.92
2023-04-20T06:13:00.555Z,98071.95
2023-04-20T06:15:28.533Z,98076.02
2023-04-20T06:17:56.593Z,98078.42
2023-04-20T06:20:24.901Z,98075.98
2023-04-20T06:22:52.797Z,98077.31
2023-04-20T06:25:20.727Z,98077.13
2023-04-20T06:27:49.664Z,98074.98
2023-04-20T06:30:19.280Z,98074.05
2023-04-20T06:32:47.269Z,98071.14
2023-04-20T06:35:15.262Z,98072.14
2023-04-20T06:37:43.332Z,98068.91
2023-04-20T06:40:13.127Z,98070.11
2023-04-20T06:42:42.304Z,98067.50
2023-04-20T06:45:11.053Z,98064.16
2023-04-20T06:47:39.115Z,98061.19
2023-04-20T06:50:09.886Z,98066.98
2023-04-20T06:52:40.011Z,98066.38
2023-04-20T06:55:08.875Z,98069.44
2023-04-20T06:57:38.886Z,98073.46
2023-04-20T07:00:09.157Z,98073.77
2023-04-20T07:02:44.491Z,98067.80
2023-04-20T07:05:12.833Z,98064.41
2023-04-20T07:07:41.773Z,98065.27
2023-04-20T07:10:12.253Z,98067.34
2023-04-20T07:12:43.229Z,98069.13
2023-04-20T07:15:12.797Z,98073.78
2023-04-20T07:17:41.088Z,98072.47
2023-04-20T07:20:09.486Z,98080.02
2023-04-20T07:22:38.723Z,98077.83
2023-04-20T07:25:08.972Z,98077.27
2023-04-20T07:27:41.451Z,98079.42
2023-04-20T07:30:10.940Z,98079.16
2023-04-20T07:32:41.412Z,98078.70
2023-04-20T07:35:09.982Z,98084.45
2023-04-20T07:37:38.140Z,98085.48
2023-04-20T07:40:07.276Z,98087.61
2023-04-20T07:42:37.481Z,98086.34
2023-04-20T07:45:06.976Z,98079.62
2023-04-20T07:47:35.405Z,98083.30
2023-04-20T07:50:05.131Z,98084.81
2023-04-20T07:52:33.382Z,98083.69
2023-04-20T07:55:01.412Z,98087.59
2023-04-20T07:57:30.146Z,98085.91
2023-04-20T07:59:58.082Z,98082.14
2023-04-20T08:02:26.706Z,98084.84
2023-04-20T08:04:55.492Z,98082.70
2023-04-20T08:07:24.211Z,98082.31
2023-04-20T08:09:52.088Z,98083.52
2023-04-20T08:12:19.997Z,98085.77
2023-04-20T08:14:47.901Z,98080.77
2023-04-20T08:17:16.296Z,98078.21
2023-04-20T08:19:45.967Z,98080.19
2023-04-20T08:22:14.328Z,98084.85
2023-04-20T08:24:42.223Z,98081.61
2023-04-20T08:27:10.283Z,98082.71
2023-04-20T08:29:39.708Z,98091.36
2023-04-20T08:32:12.526Z,98090.88
2023-04-20T08:34:41.399Z,98090.02
2023-04-20T08:37:09.515Z,98092.94
2023-04-20T08:39:39.065Z,98091.27
2023-04-20T08:42:07.036Z,98093.68
2023-04-20T08:44:35.050Z,98095.20
2023-04-20T08:47:03.460Z,98091.84
2023-04-20T08:49:33.145Z,98090.48
2023-04-20T08:52:01.192Z,98086.75
2023-04-20T08:54:29.157Z,98089.19
2023-04-20T08:56:57.180Z,98088.78
2023-04-20T08:59:25.247Z,98086.50
2023-04-20T09:01:53.182Z,98091.16
2023-04-20T09:04:27.192Z,98088.98
2023-04-20T09:06:56.600Z,98088.64
2023-04-20T09:09:27.814Z,98089.59
2023-04-20T09:12:07.909Z,98089.48
2023-04-20T09:14:43.460Z,98095.60
2023-04-20T09:17:14.619Z,98096.63
2023-04-20T09:19:52.387Z,98096.09
2023-04-20T09:22:31.327Z,98094.58
2023-04-20T09:25:00.118Z,98093.52
2023-04-20T09:27:28.058Z,98094.18
2023-04-20T09:30:06.960Z,98089.99
2023-04-20T09:32:35.813Z,98089.98
2023-04-20T09:35:03.965Z,98092.56
2023-04-20T09:37:31.940Z,98092.58
2023-04-20T09:40:00.958Z,98093.83
2023-04-20T09:42:29.159Z,98097.45
2023-04-20T09:44:57.818Z,98100.28
2023-04-20T09:47:27.495Z,98098.70
2023-04-20T09:49:56.254Z,98095.32
2023-04-20T09:52:27.550Z,98099.23
2023-04-20T09:54:56.392Z,98098.54
2023-04-20T09:57:25.878Z,98097.46
2023-04-20T09:59:54.843Z,98102.25
2023-04-20T10:02:22.991Z,98101.58
2023-04-20T10:04:58.126Z,98101.83
2023-04-20T10:07:32.040Z,98101.48
2023-04-20T10:10:18.086Z,98099.20
2023-04-20T10:13:01.599Z,98092.86
2023-04-20T10:15:40.753Z,98094.33
2023-04-20T10:18:19.956Z,98091.56
2023-04-20T10:20:48.010Z,98088.09
2023-04-20T10:23:18.724Z,98087.05
2023-04-20T10:25:58.453Z,98085.77
2023-04-20T10:28:39.846Z,98084.95
2023-04-20T10:31:13.156Z,98082.61
2023-04-20T10:33:55.891Z,98085.06
2023-04-20T10:36:29.921Z,98090.00
2023-04-20T10:38:58.951Z,98084.30
2023-04-20T10:41:27.265Z,98083.02
2023-04-20T10:43:55.168Z,98085.08
2023-04-20T10:46:24.572Z,98082.23
2023-04-20T10:48:53.286Z,98086.10
2023-04-20T10:51:21.992Z,98080.30
2023-04-20T10:53:59.677Z,98079.59
2023-04-20T10:56:27.720Z,98078.22
2023-04-20T10:59:06.779Z,98073.10
2023-04-20T11:01:35.159Z,98073.77
2023-04-20T11:04:04.369Z,98074.09
2023-04-20T11:06:32.455Z,98073.90
2023-04-20T11:09:00.398Z,98074.16
2023-04-20T11:11:28.453Z,98074.45
2023-04-20T11:14:07.702Z,98071.73
2023-04-20T11:16:48.636Z,98069.48
2023-04-20T11:19:24.220Z,98077.61
2023-04-20T11:21:52.144Z,98075.63
2023-04-20T11:24:21.860Z,98073.09
2023-04-20T11:26:50.703Z,98075.55
2023-04-20T11:29:33.339Z,98075.19
2023-04-20T11:32:04.809Z,98078.93
2023-04-20T11:34:34.182Z,98080.16
2023-04-20T11:37:10.657Z,98082.20
2023-04-20T11:39:39.471Z,98082.55
2023-04-20T11:42:07.488Z,98083.14
2023-04-20T11:44:36.826Z,98083.99
2023-04-20T11:47:05.233Z,98078.88
2023-04-20T11:49:33.234Z,98080.01
2023-04-20T11:52:01.320Z,98080.56
2023-04-20T11:54:30.692Z,98078.17
2023-04-20T11:56:59.186Z,98077.84
2023-04-20T11:59:27.088Z,98080.58
2023-04-20T12:01:55.007Z,98075.06
2023-04-20T12:04:23.427Z,98078.58
2023-04-20T12:06:51.716Z,98072.27
2023-04-20T12:09:19.874Z,98075.36
2023-04-20T12:11:48.148Z,98072.71
2023-04-20T12:14:16.255Z,98070.36
2023-04-20T12:16:44.309Z,98070.40
2023-04-20T12:19:12.408Z,98071.94
2023-04-20T12:21:40.357Z,98069.27
2023-04-20T12:24:08.264Z,98062.77
2023-04-20T12:26:38.750Z,98054.13
2023-04-20T12:29:07.625Z,98055.53
2023-04-20T12:31:36.348Z,98053.25
2023-04-20T12:34:04.630Z,98054.02
2023-04-20T12:36:32.750Z,98053.95
2023-04-20T12:39:01.832Z,98046.87
2023-04-20T12:41:29.808Z,98051.45
2023-04-20T12:43:57.749Z,98046.79
2023-04-20T12:46:25.957Z,98044.75
2023-04-20T12:48:53.929Z,98045.58
2023-04-20T12:51:21.888Z,98040.76
2023-04-20T12:53:49.750Z,98040.89
2023-04-20T12:56:17.597Z,98043.94
2023-04-20T12:58:45.577Z,98046.14
2023-04-20T13:01:13.544Z,98045.61
2023-04-20T13:03:42.773Z,98044.80
2023-04-20T13:06:14.246Z,98050.81
2023-04-20T13:08:42.622Z,98047.86
2023-04-20T13:11:16.256Z,98049.42
2023-04-20T13:13:44.241Z,98049.61
2023-04-20T13:16:12.263Z,98049.27
2023-04-20T13:18:40.174Z,98043.70
2023-04-20T13:21:08.478Z,98041.63
2023-04-20T13:23:38.230Z,98043.23
2023-04-20T13:26:07.640Z,98041.95
2023-04-20T13:28:35.706Z,98041.80
2023-04-20T13:31:04.030Z,98039.14
2023-04-20T13:33:33.803Z,98042.83
2023-04-20T13:36:01.873Z,98042.23
2023-04-20T13:38:29.947Z,98040.52
2023-04-20T13:40:58.002Z,98034.81
2023-04-20T13:43:26.142Z,98038.30
2023-04-20T13:45:54.146Z,98038.88
2023-04-20T13:48:22.529Z,98040.04
2023-04-20T13:50:51.356Z,98039.85
2023-04-20T13:53:19.297Z,98037.52
2023-04-20T13:55:48.381Z,98034.38
2023-04-20T13:58:16.361Z,98038.83
2023-04-20T14:00:44.651Z,98040.02
2023-04-20T14:03:13.372Z,98039.46
2023-04-20T14:05:42.085Z,98037.97
2023-04-20T14:08:09.985Z,98039.90
2023-04-20T14:10:39.657Z,98038.76
2023-04-20T14:13:07.674Z,98035.82
2023-04-20T14:15:36.125Z,98031.61
2023-04-20T14:18:04.175Z,98036.55
2023-04-20T14:20:32.219Z,98036.73
2023-04-20T14:23:00.553Z,98037.41
2023-04-20T14:25:28.557Z,98037.16
2023-04-20T14:27:56.643Z,98033.79
2023-04-20T14:30:24.729Z,98037.17
2023-04-20T14:32:54.920Z,98032.84
2023-04-20T14:35:23.390Z,98037.40
2023-04-20T14:37:51.273Z,98035.96
2023-04-20T14:40:20.370Z,98039.58
2023-04-20T14:42:48.314Z,98035.49
2023-04-20T14:45:16.422Z,98031.22
2023-04-20T14:47:44.421Z,98029.42
2023-04-20T14:50:12.478Z,98029.17
2023-04-20T14:52:40.338Z,98028.36
2023-04-20T14:55:08.382Z,98020.58
2023-04-20T14:57:36.328Z,98023.94
2023-04-20T15:00:06.014Z,98023.90
2023-04-20T15:02:36.534Z,98022.19
2023-04-20T15:05:10.340Z,98020.98
2023-04-20T15:07:39.101Z,98019.27
2023-04-20T15:10:07.476Z,98021.21
2023-04-20T15:12:35.332Z,98025.92
2023-04-20T15:15:03.499Z,98021.95
2023-04-20T15:17:31.368Z,98027.08
2023-04-20T15:19:59.282Z,98024.52
2023-04-20T15:22:27.178Z,98028.21
2023-04-20T15:24:56.792Z,98029.66
2023-04-20T15:27:36.877Z,98033.80
2023-04-20T15:30:05.589Z,98029.80
2023-04-20T15:32:36.309Z,98033.54
2023-04-20T15:35:04.473Z,98032.02
2023-04-20T15:37:34.375Z,98033.52
2023-04-20T15:40:02.316Z,98036.27
2023-04-20T15:42:30.508Z,98035.38
2023-04-20T15:44:58.507Z,98032.13
2023-04-20T15:47:26.539Z,98035.50
2023-04-20T15:50:01.228Z,98032.00
2023-04-20T15:52:31.319Z,98032.45
2023-04-20T15:55:01.496Z,98031.79
2023-04-20T15:57:35.288Z,98033.20
2023-04-20T16:00:04.478Z,98032.81
2023-04-20T16:02:40.228Z,98030.48
2023-04-20T16:05:09.144Z,98035.23
2023-04-20T16:07:37.105Z,98030.88
2023-04-20T16:10:06.924Z,98027.42
2023-04-20T16:12:35.064Z,98029.30
2023-04-20T16:15:04.128Z,98027.11
2023-04-20T16:17:32.075Z,98026.02
2023-04-20T16:19:59.977Z,98026.83
2023-04-20T16:22:28.001Z,98024.56
2023-04-20T16:24:55.967Z,98023.91
2023-04-20T16:27:23.856Z,98022.68
2023-04-20T16:29:51.839Z,98027.29
2023-04-20T16:32:19.725Z,98022.34
2023-04-20T16:34:47.935Z,98024.95
2023-04-20T16:37:16.144Z,98025.77
2023-04-20T16:39:45.145Z,98027.24
2023-04-20T16:42:13.022Z,98025.40
2023-04-20T16:44:41.908Z,98028.56
2023-04-20T16:47:10.044Z,98027.62
2023-04-20T16:49:40.870Z,98026.46
2023-04-20T16:52:10.730Z,98024.48
2023-04-20T16:54:38.614Z,98024.86
2023-04-20T16:57:06.551Z,98027.13
2023-04-20T16:59:34.607Z,98025.09
2023-04-20T17:02:02.676Z,98025.16
2023-04-20T17:04:30.789Z,98022.77
2023-04-20T17:06:58.713Z,98024.75
2023-04-20T17:09:26.719Z,98025.89
2023-04-20T17:11:54.967Z,98028.41
2023-04-20T17:14:22.915Z,98030.10
2023-04-20T17:16:54.249Z,98034.11
2023-04-20T17:19:23.610Z,98034.04
2023-04-20T17:21:51.541Z,98029.69
2023-04-20T17:24:19.681Z,98028.95
2023-04-20T17:26:47.917Z,98032.36
2023-04-20T17:29:15.847Z,98031.95
2023-04-20T17:31:47.959Z,98032.75
2023-04-20T17:34:16.187Z,98033.48
2023-04-20T17:36:44.476Z,98035.96
2023-04-20T17:39:12.883Z,98034.50
2023-04-20T17:41:40.800Z,98036.13
2023-04-20T17:44:10.942Z,98034.81
2023-04-20T17:46:46.293Z,98035.45
2023-04-20T17:49:14.228Z,98035.79
2023-04-20T17:51:42.254Z,98038.58
2023-04-20T17:54:11.493Z,98036.86
2023-04-20T17:56:39.791Z,98036.34
2023-04-20T17:59:07.858Z,98034.80
2023-04-20T18:01:36.023Z,98035.54
2023-04-20T18:04:04.862Z,98037.84
2023-04-20T18:06:33.889Z,98040.78
2023-04-20T18:09:02.087Z,98035.66
2023-04-20T18:11:30.007Z,98035.14
2023-04-20T18:13:57.928Z,98038.94
2023-04-20T18:16:26.063Z,98035.64
2023-04-20T18:18:54.077Z,98039.73
2023-04-20T18:21:21.995Z,98040.80
2023-04-20T18:23:49.948Z,98042.02
2023-04-20T18:26:17.937Z,98043.66
2023-04-20T18:28:46.571Z,98043.27
2023-04-20T18:31:14.609Z,98042.98
2023-04-20T18:33:42.644Z,98045.65
2023-04-20T18:36:10.554Z,98047.17
2023-04-20T18:38:38.850Z,98041.27
2023-04-20T18:41:06.810Z,98046.92
2023-04-20T18:43:34.830Z,98044.55
2023-04-20T18:46:02.950Z,98045.91
2023-04-20T18:48:30.854Z,98044.83
2023-04-20T18:51:01.784Z,98044.55
2023-04-20T18:53:31.427Z,98046.34
2023-04-20T18:56:02.282Z,98042.68
2023-04-20T18:58:31.110Z,98044.31
2023-04-20T19:01:01.189Z,98045.73
2023-04-20T19:03:29.574Z,98043.34
2023-04-20T19:05:58.461Z,98045.73
2023-04-20T19:08:26.480Z,98044.33
2023-04-20T19:10:57.789Z,98046.73
2023-04-20T19:13:25.730Z,98024.63
2023-04-20T19:15:59.727Z,98040.30
2023-04-20T19:18:27.686Z,98048.84
2023-04-20T19:20:55.649Z,98047.37
2023-04-20T19:23:23.551Z,98045.16
2023-04-20T19:25:52.580Z,98043.98
2023-04-20T19:28:23.442Z,98045.73
2023-04-20T19:30:52.347Z,98044.83
2023-04-20T19:33:20.796Z,98044.59
2023-04-20T19:35:51.050Z,98044.52
2023-04-20T19:38:20.230Z,98042.07
2023-04-20T19:40:50.140Z,98041.37
2023-04-20T19:43:18.226Z,98040.48
2023-04-20T19:45:46.303Z,98041.77
2023-04-20T19:48:14.517Z,98037.84
2023-04-20T19:50:42.976Z,98038.15
2023-04-20T19:53:15.346Z,98039.00
2023-04-20T19:55:43.396Z,98037.55
2023-04-20T19:58:11.567Z,98036.77
2023-04-20T20:00:39.583Z,98033.23
2023-04-20T20:03:10.454Z,98031.66
2023-04-20T20:05:38.597Z,98032.59
2023-04-20T20:08:06.785Z,98033.84
2023-04-20T20:10:34.846Z,98032.65
2023-04-20T20:13:03.133Z,98038.47
2023-04-20T20:15:32.440Z,98030.88
2023-04-20T20:18:00.762Z,98033.52
2023-04-20T20:20:30.773Z,98032.24
2023-04-20T20:22:59.797Z,98030.92
2023-04-20T20:25:27.655Z,98033.94
2023-04-20T20:27:55.759Z,98031.75
2023-04-20T20:30:23.886Z,98029.45
2023-04-20T20:32:53.489Z,98028.90
2023-04-20T20:35:21.480Z,98024.86
2023-04-20T20:37:49.412Z,98023.94
2023-04-20T20:40:17.522Z,98027.11
2023-04-20T20:42:45.652Z,98029.27
2023-04-20T20:45:14.099Z,98031.98
2023-04-20T20:47:44.299Z,98035.02
2023-04-20T20:50:13.900Z,98034.23
2023-04-20T20:52:42.162Z,98035.83
2023-04-20T20:55:16.016Z,98035.20
2023-04-20T20:57:43.984Z,98038.11
2023-04-20T21:00:12.641Z,98035.89
2023-04-20T21:02:40.694Z,98034.19
2023-04-20T21:05:09.186Z,98034.66
2023-04-20T21:07:37.198Z,98035.13
2023-04-20T21:10:05.851Z,98033.92
2023-04-20T21:12:33.788Z,98032.98
2023-04-20T21:15:01.717Z,98034.13
2023-04-20T21:17:29.638Z,98029.60
2023-04-20T21:19:57.584Z,98034.02
2023-04-20T21:22:25.608Z,98029.41
2023-04-20T21:24:53.530Z,98031.56
2023-04-20T21:27:21.469Z,98031.96
2023-04-20T21:29:49.484Z,98033.98
2023-04-20T21:32:17.508Z,98033.45
2023-04-20T21:34:45.487Z,98037.48
2023-04-20T21:37:13.522Z,98036.54
2023-04-20T21:39:41.461Z,98038.70
2023-04-20T21:42:09.684Z,98033.15
2023-04-20T21:44:37.692Z,98037.68
2023-04-20T21:47:05.611Z,98034.13
2023-04-20T21:49:34.174Z,98032.09
2023-04-20T21:52:02.135Z,98033.77
2023-04-20T21:54:30.631Z,98034.95
2023-04-20T21:56:59.626Z,98038.06
2023-04-20T21:59:27.618Z,98038.11
2023-04-20T22:01:55.561Z,98037.38
2023-04-20T22:04:27.176Z,98038.47
2023-04-20T22:06:55.682Z,98036.07
2023-04-20T22:09:23.829Z,98037.76
2023-04-20T22:11:51.957Z,98037.52
2023-04-20T22:14:19.969Z,98037.06
2023-04-20T22:16:48.057Z,98039.59
2023-04-20T22:19:16.635Z,98039.97
2023-04-20T22:21:44.707Z,98036.88
2023-04-20T22:24:12.712Z,98037.70
2023-04-20T22:26:40.859Z,98035.05
2023-04-20T22:29:08.740Z,98033.78
2023-04-20T22:31:36.628Z,98032.00
2023-04-20T22:34:04.592Z,98029.48
2023-04-20T22:36:32.654Z,98035.39
2023-04-20T22:39:00.612Z,98035.00
2023-04-20T22:41:28.604Z,98037.65
2023-04-20T22:43:56.694Z,98043.65
2023-04-20T22:46:24.625Z,98044.05
2023-04-20T22:48:52.549Z,98043.58
2023-04-20T22:51:20.649Z,98043.98
2023-04-20T22:53:48.538Z,98045.58
2023-04-20T22:56:16.477Z,98045.41
2023-04-20T22:58:44.353Z,98045.42
2023-04-20T23:01:12.324Z,98043.91
2023-04-20T23:03:40.603Z,98042.38
2023-04-20T23:06:11.278Z,98042.65
2023-04-20T23:08:39.982Z,98042.34
2023-04-20T23:11:07.853Z,98044.25
2023-04-20T23:13:37.266Z,98042.39
2023-04-20T23:16:05.652Z,98046.32
2023-04-20T23:18:34.593Z,98041.08
2023-04-20T23:21:02.582Z,98038.84
2023-04-20T23:23:30.459Z,98037.83
2023-04-20T23:25:58.324Z,98040.00
2023-04-20T23:28:26.214Z,98038.02
2023-04-20T23:30:54.101Z,98038.73
2023-04-20T23:33:22.025Z,98038.60
2023-04-20T23:35:49.913Z,98035.81
2023-04-20T23:38:18.361Z,98036.56
2023-04-20T23:40:46.388Z,98032.24
2023-04-20T23:43:14.260Z,98031.00
2023-04-20T23:45:42.517Z,98029.98
2023-04-20T23:48:10.657Z,98026.71
2023-04-20T23:50:38.563Z,98025.91
2023-04-20T23:53:07.584Z,98031.11
2023-04-20T23:55:35.531Z,98025.11
2023-04-20T23:58:03.478Z,98020.23
